createdAt,value
2023-03-06T00:01:30.085Z,13.77
2023-03-06T00:03:59.254Z,16.17
2023-03-06T00:06:27.754Z,12.63
2023-03-06T00:08:56.179Z,11.20
2023-03-06T00:11:25.304Z,12.00
2023-03-06T00:13:54.102Z,10.85
2023-03-06T00:16:25.134Z,10.65
2023-03-06T00:18:54.142Z,11.13
2023-03-06T00:21:22.580Z,10.52
2023-03-06T00:23:51.599Z,9.77
2023-03-06T00:26:21.067Z,9.43
2023-03-06T00:28:50.135Z,9.57
2023-03-06T00:31:19.255Z,9.15
2023-03-06T00:33:49.656Z,11.20
2023-03-06T00:36:20.491Z,12.63
2023-03-06T00:38:50.694Z,11.80
2023-03-06T00:41:19.468Z,13.07
2023-03-06T00:43:48.286Z,13.98
2023-03-06T00:46:16.907Z,13.07
2023-03-06T00:48:45.772Z,14.35
2023-03-06T00:51:17.557Z,12.77
2023-03-06T00:53:46.464Z,14.45
2023-03-06T00:56:14.991Z,12.65
2023-03-06T00:58:44.158Z,12.80
2023-03-06T01:01:12.971Z,11.70
2023-03-06T01:03:42.592Z,13.35
2023-03-06T01:06:13.453Z,13.18
2023-03-06T01:08:43.567Z,12.82
2023-03-06T01:11:12.312Z,14.20
2023-03-06T01:13:42.726Z,13.88
2023-03-06T01:16:14.388Z,12.93
2023-03-06T01:18:44.039Z,12.50
2023-03-06T01:21:13.565Z,16.20
2023-03-06T01:23:43.637Z,14.25
2023-03-06T01:26:12.133Z,14.07
2023-03-06T01:28:40.792Z,13.95
2023-03-06T01:31:10.654Z,11.73
2023-03-06T01:33:39.582Z,13.95
2023-03-06T01:36:10.577Z,15.30
2023-03-06T01:38:39.744Z,14.93
2023-03-06T01:41:15.812Z,16.90
2023-03-06T01:43:46.487Z,15.02
2023-03-06T01:46:25.326Z,15.43
2023-03-06T01:48:56.872Z,15.20
2023-03-06T01:51:29.894Z,14.60
2023-03-06T01:54:01.356Z,14.38
2023-03-06T01:56:31.454Z,14.52
2023-03-06T01:59:01.012Z,12.82
2023-03-06T02:01:31.516Z,14.57
2023-03-06T02:04:02.352Z,12.55
2023-03-06T02:06:31.158Z,12.83
2023-03-06T02:09:05.840Z,12.85
2023-03-06T02:11:35.853Z,12.35
2023-03-06T02:14:04.598Z,11.07
2023-03-06T02:16:34.504Z,12.50
2023-03-06T02:19:03.875Z,10.10
2023-03-06T02:21:36.514Z,10.50
2023-03-06T02:24:15.908Z,10.05
2023-03-06T02:26:47.855Z,9.75
2023-03-06T02:29:23.181Z,10.18
2023-03-06T02:31:51.677Z,10.40
2023-03-06T02:34:54.492Z,10.38
2023-03-06T02:37:25.018Z,8.75
2023-03-06T02:42:30.085Z,8.75
2023-03-06T02:45:03.538Z,8.52
2023-03-06T02:50:00.876Z,7.60
2023-03-06T02:52:29.493Z,9.20
2023-03-06T02:54:58.002Z,9.05
2023-03-06T02:57:26.607Z,8.82
2023-03-06T02:59:56.952Z,7.85
2023-03-06T03:02:25.754Z,8.85
2023-03-06T03:04:54.355Z,8.35
2023-03-06T03:07:22.790Z,9.27
2023-03-06T03:09:51.199Z,8.70
2023-03-06T03:12:21.404Z,7.80
2023-03-06T03:14:49.957Z,8.07
2023-03-06T03:17:20.389Z,8.15
2023-03-06T03:19:49.206Z,7.25
2023-03-06T03:22:18.628Z,8.80
2023-03-06T03:24:47.730Z,8.98
2023-03-06T03:27:16.602Z,7.57
2023-03-06T03:29:46.054Z,6.93
2023-03-06T03:32:15.062Z,7.38
2023-03-06T03:34:45.595Z,7.68
2023-03-06T03:37:15.140Z,8.27
2023-03-06T03:39:44.586Z,8.15
2023-03-06T03:42:13.569Z,8.18
2023-03-06T03:44:41.974Z,7.50
2023-03-06T03:47:10.461Z,8.07
2023-03-06T03:49:39.107Z,7.93
2023-03-06T03:52:09.838Z,8.63
2023-03-06T03:54:40.206Z,8.25
2023-03-06T03:57:08.640Z,9.40
2023-03-06T03:59:41.656Z,9.05
2023-03-06T04:05:34.153Z,7.40
2023-03-06T04:08:06.525Z,7.82
2023-03-06T04:10:39.530Z,7.90
2023-03-06T04:13:10.368Z,7.57
2023-03-06T04:15:43.220Z,7.38
2023-03-06T04:18:12.882Z,7.70
2023-03-06T04:20:42.199Z,7.10
2023-03-06T04:23:13.312Z,8.20
2023-03-06T04:25:41.901Z,7.93
2023-03-06T04:28:13.626Z,7.68
2023-03-06T04:30:42.136Z,7.03
2023-03-06T04:33:11.249Z,8.38
2023-03-06T04:35:40.225Z,6.95
2023-03-06T04:38:15.561Z,7.93
2023-03-06T04:40:45.109Z,7.65
2023-03-06T04:43:13.961Z,7.15
2023-03-06T04:45:42.550Z,8.05
2023-03-06T04:48:13.847Z,7.43
2023-03-06T04:50:42.805Z,7.35
2023-03-06T04:53:11.542Z,7.97
2023-03-06T04:55:41.752Z,6.95
2023-03-06T04:58:12.702Z,7.55
2023-03-06T05:00:41.398Z,8.77
2023-03-06T05:03:10.590Z,7.93
2023-03-06T05:05:39.017Z,8.60
2023-03-06T05:08:08.011Z,8.35
2023-03-06T05:10:36.472Z,8.75
2023-03-06T05:13:06.896Z,7.97
2023-03-06T05:15:35.376Z,7.90
2023-03-06T05:18:03.903Z,8.18
2023-03-06T05:20:32.354Z,8.48
2023-03-06T05:23:00.737Z,8.27
2023-03-06T05:25:29.277Z,8.57
2023-03-06T05:27:58.549Z,8.05
2023-03-06T05:30:28.460Z,8.05
2023-03-06T05:32:57.271Z,8.32
2023-03-06T05:35:26.077Z,9.32
2023-03-06T05:37:54.505Z,7.95
2023-03-06T05:40:23.346Z,9.80
2023-03-06T05:42:51.898Z,10.52
2023-03-06T05:45:20.802Z,10.50
2023-03-06T05:47:50.843Z,10.00
2023-03-06T05:50:19.607Z,9.45
2023-03-06T05:52:48.305Z,11.18
2023-03-06T05:55:16.935Z,11.65
2023-03-06T05:57:45.427Z,11.43
2023-03-06T06:00:16.139Z,10.15
2023-03-06T06:02:47.054Z,10.57
2023-03-06T06:05:17.269Z,12.77
2023-03-06T06:07:45.715Z,11.15
2023-03-06T06:10:14.309Z,11.68
2023-03-06T06:12:42.815Z,13.45
2023-03-06T06:15:11.891Z,12.95
2023-03-06T06:17:40.931Z,12.70
2023-03-06T06:20:10.856Z,12.00
2023-03-06T06:22:40.729Z,11.63
2023-03-06T06:25:10.045Z,10.73
2023-03-06T06:27:38.898Z,11.55
2023-03-06T06:30:08.721Z,9.82
2023-03-06T06:32:38.119Z,9.43
2023-03-06T06:35:07.805Z,10.02
2023-03-06T06:37:36.630Z,11.20
2023-03-06T06:40:07.747Z,9.52
2023-03-06T06:42:39.855Z,11.25
2023-03-06T06:45:10.172Z,9.77
2023-03-06T06:47:41.615Z,10.10
2023-03-06T06:52:41.863Z,10.83
2023-03-06T06:55:13.307Z,10.73
2023-03-06T06:57:42.580Z,11.90
2023-03-06T07:00:15.413Z,12.38
2023-03-06T07:02:44.390Z,13.35
2023-03-06T07:05:12.958Z,12.88
2023-03-06T07:07:42.333Z,12.60
2023-03-06T07:10:16.664Z,14.43
2023-03-06T07:12:45.244Z,12.73
2023-03-06T07:15:16.154Z,10.93
2023-03-06T07:17:44.878Z,11.80
2023-03-06T07:20:13.467Z,11.65
2023-03-06T07:22:50.885Z,12.13
2023-03-06T07:25:22.574Z,11.93
2023-03-06T07:27:54.252Z,11.75
2023-03-06T07:30:23.976Z,13.10
2023-03-06T07:32:56.615Z,12.80
2023-03-06T07:35:26.072Z,12.57
2023-03-06T07:37:55.136Z,12.98
2023-03-06T07:40:26.538Z,14.90
2023-03-06T07:43:06.083Z,16.63
2023-03-06T07:45:47.031Z,14.60
2023-03-06T07:48:15.576Z,15.27
2023-03-06T07:50:44.073Z,14.48
2023-03-06T07:53:12.991Z,13.85
2023-03-06T07:55:43.081Z,12.98
2023-03-06T07:58:12.047Z,13.27
2023-03-06T08:00:40.505Z,13.88
2023-03-06T08:03:10.533Z,13.82
2023-03-06T08:05:39.543Z,14.85
2023-03-06T08:08:08.925Z,13.30
2023-03-06T08:10:37.526Z,14.70
2023-03-06T08:13:07.490Z,14.35
2023-03-06T08:15:35.848Z,17.00
2023-03-06T08:18:04.725Z,21.88
2023-03-06T08:20:33.317Z,17.92
2023-03-06T08:23:02.469Z,19.55
2023-03-06T08:25:31.042Z,13.10
2023-03-06T08:28:05.721Z,12.70
2023-03-06T08:30:36.970Z,12.93
2023-03-06T08:33:05.660Z,11.90
2023-03-06T08:35:34.078Z,13.43
2023-03-06T08:38:02.776Z,12.63
2023-03-06T08:40:31.766Z,13.35
2023-03-06T08:43:00.360Z,13.38
2023-03-06T08:45:29.101Z,12.77
2023-03-06T08:47:59.224Z,11.40
2023-03-06T08:50:27.688Z,10.25
2023-03-06T08:52:56.618Z,10.82
2023-03-06T08:55:25.612Z,10.77
2023-03-06T08:57:54.150Z,14.32
2023-03-06T09:00:23.246Z,18.40
2023-03-06T09:02:51.770Z,14.77
2023-03-06T09:05:22.316Z,19.92
2023-03-06T09:07:51.189Z,13.85
2023-03-06T09:10:23.194Z,21.48
2023-03-06T09:15:24.493Z,19.50
2023-03-06T09:17:54.313Z,17.35
2023-03-06T09:20:24.361Z,18.90
2023-03-06T09:22:53.138Z,12.85
2023-03-06T09:25:23.385Z,13.48
2023-03-06T09:28:08.646Z,10.02
2023-03-06T09:30:41.537Z,8.85
2023-03-06T09:33:10.314Z,10.60
2023-03-06T09:35:48.062Z,16.25
2023-03-06T09:38:16.678Z,11.63
2023-03-06T09:41:02.079Z,8.40
2023-03-06T09:43:33.203Z,7.15
2023-03-06T09:46:01.663Z,8.87
2023-03-06T09:48:40.961Z,8.18
2023-03-06T09:51:16.468Z,8.50
2023-03-06T09:54:03.598Z,8.20
2023-03-06T09:56:35.585Z,7.68
2023-03-06T09:59:12.589Z,6.63
2023-03-06T10:01:45.937Z,6.32
2023-03-06T10:04:33.710Z,6.25
2023-03-06T10:07:12.763Z,6.88
2023-03-06T10:09:47.774Z,7.80
2023-03-06T10:12:24.994Z,6.20
2023-03-06T10:15:01.723Z,6.40
2023-03-06T10:17:36.805Z,6.32
2023-03-06T10:20:18.374Z,13.98
2023-03-06T10:23:05.089Z,7.82
2023-03-06T10:25:38.991Z,9.57
2023-03-06T10:28:16.924Z,11.77
2023-03-06T10:30:56.286Z,10.25
2023-03-06T10:33:34.786Z,14.27
2023-03-06T10:36:03.309Z,15.48
2023-03-06T10:38:38.439Z,20.33
2023-03-06T10:41:22.622Z,12.45
2023-03-06T10:44:25.189Z,11.40
2023-03-06T10:46:56.412Z,12.50
2023-03-06T10:49:33.818Z,13.73
2023-03-06T10:52:06.994Z,12.18
2023-03-06T10:54:38.771Z,13.55
2023-03-06T10:57:26.035Z,12.90
2023-03-06T10:59:59.042Z,15.80
2023-03-06T11:02:31.550Z,16.13
2023-03-06T11:05:02.033Z,15.65
2023-03-06T11:07:31.608Z,16.95
2023-03-06T11:10:06.308Z,15.10
2023-03-06T11:12:36.886Z,19.08
2023-03-06T11:15:22.876Z,13.85
2023-03-06T11:17:58.699Z,16.95
2023-03-06T11:20:44.645Z,19.17
2023-03-06T11:23:21.035Z,13.55
2023-03-06T11:25:56.743Z,24.92
2023-03-06T11:28:30.160Z,23.23
2023-03-06T11:31:04.194Z,13.40
2023-03-06T11:33:40.765Z,18.88
2023-03-06T11:36:16.585Z,18.17
2023-03-06T11:38:50.292Z,20.27
2023-03-06T11:41:32.591Z,14.68
2023-03-06T11:44:14.652Z,14.60
2023-03-06T11:46:49.677Z,12.55
2023-03-06T11:49:24.738Z,12.48
2023-03-06T11:51:56.915Z,10.95
2023-03-06T11:54:26.246Z,13.52
2023-03-06T11:56:59.789Z,19.58
2023-03-06T11:59:51.711Z,16.27
2023-03-06T12:02:30.640Z,15.50
2023-03-06T12:05:23.011Z,16.33
2023-03-06T12:08:00.615Z,15.65
2023-03-06T12:10:36.774Z,14.18
2023-03-06T12:13:37.062Z,13.60
2023-03-06T12:16:34.669Z,11.95
2023-03-06T12:19:19.930Z,13.15
2023-03-06T12:21:59.436Z,12.38
2023-03-06T12:24:46.319Z,12.63
2023-03-06T12:27:24.005Z,13.48
2023-03-06T12:30:22.143Z,12.55
2023-03-06T12:32:59.015Z,11.25
2023-03-06T12:35:50.900Z,11.43
2023-03-06T12:38:38.730Z,13.40
2023-03-06T12:41:21.878Z,12.50
2023-03-06T12:44:14.267Z,13.55
2023-03-06T12:46:48.206Z,13.68
2023-03-06T12:49:31.804Z,14.02
2023-03-06T12:52:03.861Z,12.82
2023-03-06T12:54:37.737Z,13.23
2023-03-06T12:57:09.765Z,12.38
2023-03-06T12:59:42.932Z,12.45
2023-03-06T13:02:58.084Z,11.65
2023-03-06T13:05:57.340Z,10.57
2023-03-06T13:09:00.104Z,11.00
2023-03-06T13:12:02.142Z,10.48
2023-03-06T13:14:54.673Z,11.02
2023-03-06T13:17:41.392Z,9.95
2023-03-06T13:20:42.336Z,10.80
2023-03-06T13:24:01.290Z,9.73
2023-03-06T13:26:55.570Z,10.05
2023-03-06T13:30:00.885Z,9.93
2023-03-06T13:32:34.907Z,9.20
2023-03-06T13:35:04.277Z,8.88
2023-03-06T13:37:50.853Z,8.90
2023-03-06T13:40:31.515Z,16.88
2023-03-06T13:43:26.154Z,35.58
2023-03-06T13:45:54.861Z,13.32
2023-03-06T13:48:47.646Z,9.45
2023-03-06T13:51:24.349Z,11.65
2023-03-06T13:54:27.292Z,9.05
2023-03-06T13:57:14.900Z,8.38
2023-03-06T14:00:12.062Z,8.32
2023-03-06T14:03:14.403Z,9.23
2023-03-06T14:05:45.453Z,10.18
2023-03-06T14:08:17.937Z,8.82
2023-03-06T14:10:49.603Z,7.85
2023-03-06T14:13:23.548Z,7.45
2023-03-06T14:15:55.857Z,7.18
2023-03-06T14:20:58.931Z,5.72
2023-03-06T14:23:33.604Z,6.22
2023-03-06T14:26:10.094Z,5.72
2023-03-06T14:28:38.783Z,5.38
2023-03-06T14:31:17.431Z,6.00
2023-03-06T14:33:52.991Z,5.55
2023-03-06T14:36:23.864Z,5.93
2023-03-06T14:38:55.034Z,5.20
2023-03-06T14:41:27.061Z,5.05
2023-03-06T14:44:09.652Z,4.95
2023-03-06T14:46:39.959Z,5.30
2023-03-06T14:49:08.960Z,4.93
2023-03-06T14:51:43.720Z,5.40
2023-03-06T14:54:19.666Z,5.68
2023-03-06T14:56:53.175Z,5.22
2023-03-06T14:59:26.422Z,6.22
2023-03-06T15:02:00.759Z,5.60
2023-03-06T15:04:36.855Z,5.63
2023-03-06T15:07:10.896Z,5.22
2023-03-06T15:09:40.861Z,5.00
2023-03-06T15:12:38.739Z,5.32
2023-03-06T15:15:30.327Z,5.15
2023-03-06T15:18:01.441Z,4.78
2023-03-06T15:20:43.308Z,4.32
2023-03-06T15:23:21.764Z,4.32
2023-03-06T15:25:52.799Z,4.38
2023-03-06T15:28:37.168Z,4.57
2023-03-06T15:31:20.756Z,4.97
2023-03-06T15:34:27.937Z,4.47
2023-03-06T15:36:58.938Z,4.10
2023-03-06T15:39:30.580Z,4.70
2023-03-06T15:42:00.295Z,4.18
2023-03-06T15:44:32.874Z,4.60
2023-03-06T15:47:09.393Z,4.43
2023-03-06T15:49:41.051Z,4.53
2023-03-06T15:52:11.503Z,4.47
2023-03-06T15:54:40.235Z,5.88
2023-03-06T15:57:18.732Z,9.60
2023-03-06T15:59:47.695Z,8.45
2023-03-06T16:02:19.027Z,5.65
2023-03-06T16:04:49.649Z,5.10
2023-03-06T16:07:18.712Z,4.80
2023-03-06T16:09:47.849Z,4.60
2023-03-06T16:12:18.764Z,4.82
2023-03-06T16:14:48.733Z,5.40
2023-03-06T16:17:17.931Z,5.15
2023-03-06T16:19:48.271Z,5.28
2023-03-06T16:22:16.823Z,6.30
2023-03-06T16:24:45.511Z,6.72
2023-03-06T16:27:19.249Z,6.85
2023-03-06T16:29:47.816Z,7.38
2023-03-06T16:32:17.660Z,8.15
2023-03-06T16:34:46.489Z,7.28
2023-03-06T16:37:16.989Z,6.82
2023-03-06T16:39:45.610Z,7.13
2023-03-06T16:42:14.148Z,7.30
2023-03-06T16:44:42.916Z,8.43
2023-03-06T16:47:13.148Z,8.23
2023-03-06T16:49:42.351Z,7.57
2023-03-06T16:52:12.239Z,7.82
2023-03-06T16:54:44.600Z,7.80
2023-03-06T16:57:15.778Z,8.93
2023-03-06T16:59:44.428Z,8.98
2023-03-06T17:02:13.669Z,9.68
2023-03-06T17:04:42.512Z,8.88
2023-03-06T17:07:11.946Z,8.70
2023-03-06T17:09:42.161Z,9.95
2023-03-06T17:12:11.333Z,9.38
2023-03-06T17:14:40.585Z,10.02
2023-03-06T17:17:09.144Z,8.60
2023-03-06T17:19:38.698Z,9.38
2023-03-06T17:22:07.631Z,9.50
2023-03-06T17:24:37.690Z,9.70
2023-03-06T17:27:08.109Z,9.77
2023-03-06T17:29:36.786Z,6.75
2023-03-06T17:32:05.724Z,5.95
2023-03-06T17:34:34.448Z,4.15
2023-03-06T17:37:06.498Z,3.83
2023-03-06T17:42:05.262Z,4.22
2023-03-06T17:44:35.836Z,4.40
2023-03-06T17:47:04.854Z,5.15
2023-03-06T17:49:33.593Z,5.25
2023-03-06T17:52:03.771Z,4.70
2023-03-06T17:54:33.428Z,5.80
2023-03-06T17:57:03.760Z,5.75
2023-03-06T17:59:35.347Z,5.25
2023-03-06T18:02:06.497Z,5.65
2023-03-06T18:04:35.258Z,5.65
2023-03-06T18:07:04.158Z,5.82
2023-03-06T18:09:32.746Z,5.80
2023-03-06T18:12:01.788Z,5.82
2023-03-06T18:14:30.708Z,6.35
2023-03-06T18:17:00.930Z,8.05
2023-03-06T18:19:29.866Z,16.10
2023-03-06T18:21:58.594Z,14.50
2023-03-06T18:24:27.465Z,9.95
2023-03-06T18:26:56.061Z,8.40
2023-03-06T18:29:24.705Z,8.10
2023-03-06T18:31:53.530Z,7.78
2023-03-06T18:34:24.011Z,7.78
2023-03-06T18:36:53.057Z,6.68
2023-03-06T18:39:22.602Z,10.88
2023-03-06T18:41:51.988Z,9.95
2023-03-06T18:44:21.111Z,8.43
2023-03-06T18:46:50.086Z,7.93
2023-03-06T18:49:19.280Z,7.70
2023-03-06T18:51:51.134Z,7.60
2023-03-06T18:54:20.477Z,7.40
2023-03-06T18:56:49.701Z,10.07
2023-03-06T18:59:19.008Z,10.50
2023-03-06T19:01:48.829Z,11.50
2023-03-06T19:04:17.367Z,10.75
2023-03-06T19:06:46.275Z,15.63
2023-03-06T19:09:16.568Z,11.07
2023-03-06T19:11:47.005Z,10.50
2023-03-06T19:14:16.365Z,9.15
2023-03-06T19:16:45.317Z,9.43
2023-03-06T19:19:13.895Z,8.32
2023-03-06T19:21:42.977Z,9.02
2023-03-06T19:24:14.197Z,10.02
2023-03-06T19:26:44.436Z,9.77
2023-03-06T19:29:13.159Z,8.68
2023-03-06T19:31:43.303Z,8.93
2023-03-06T19:34:12.048Z,8.77
2023-03-06T19:36:40.978Z,11.07
2023-03-06T19:39:09.998Z,9.90
2023-03-06T19:41:38.669Z,10.88
2023-03-06T19:44:09.368Z,10.75
2023-03-06T19:46:40.822Z,10.20
2023-03-06T19:49:12.268Z,10.63
2023-03-06T19:51:40.917Z,9.10
2023-03-06T19:54:10.725Z,8.80
2023-03-06T19:56:39.430Z,10.30
2023-03-06T19:59:09.891Z,11.48
2023-03-06T20:01:38.794Z,9.83
2023-03-06T20:04:07.520Z,9.18
2023-03-06T20:06:36.895Z,9.93
2023-03-06T20:09:07.546Z,11.10
2023-03-06T20:11:36.805Z,9.52
2023-03-06T20:14:09.885Z,9.90
2023-03-06T20:16:38.773Z,11.68
2023-03-06T20:19:08.772Z,11.23
2023-03-06T20:21:38.102Z,11.02
2023-03-06T20:24:09.012Z,10.75
2023-03-06T20:26:38.688Z,10.48
2023-03-06T20:29:08.648Z,11.10
2023-03-06T20:31:37.380Z,10.77
2023-03-06T20:34:06.757Z,10.43
2023-03-06T20:36:37.910Z,10.18
2023-03-06T20:39:09.462Z,9.57
2023-03-06T20:41:38.267Z,11.15
2023-03-06T20:44:13.135Z,10.32
2023-03-06T20:46:42.309Z,11.80
2023-03-06T20:49:12.806Z,10.65
2023-03-06T20:51:42.466Z,11.40
2023-03-06T20:54:13.223Z,10.65
2023-03-06T20:56:44.993Z,11.73
2023-03-06T21:01:45.440Z,9.93
2023-03-06T21:04:15.977Z,10.02
2023-03-06T21:06:47.022Z,9.52
2023-03-06T21:09:17.405Z,9.90
2023-03-06T21:11:46.681Z,10.02
2023-03-06T21:14:17.043Z,9.05
2023-03-06T21:16:45.611Z,9.07
2023-03-06T21:19:14.454Z,9.23
2023-03-06T21:21:43.386Z,9.23
2023-03-06T21:24:12.179Z,10.13
2023-03-06T21:26:41.261Z,8.50
2023-03-06T21:29:11.227Z,9.68
2023-03-06T21:31:41.783Z,8.63
2023-03-06T21:34:11.640Z,9.45
2023-03-06T21:36:40.266Z,9.05
2023-03-06T21:39:09.903Z,8.63
2023-03-06T21:41:42.102Z,9.55
2023-03-06T21:44:11.939Z,8.27
2023-03-06T21:46:42.978Z,9.00
2023-03-06T21:49:11.872Z,9.25
2023-03-06T21:51:40.615Z,8.82
2023-03-06T21:54:10.310Z,8.73
2023-03-06T21:56:38.847Z,8.45
2023-03-06T21:59:07.559Z,8.57
2023-03-06T22:01:36.740Z,8.95
2023-03-06T22:04:07.172Z,8.52
2023-03-06T22:06:36.324Z,8.55
2023-03-06T22:09:05.474Z,8.82
2023-03-06T22:11:37.129Z,8.48
2023-03-06T22:14:05.914Z,7.90
2023-03-06T22:16:34.878Z,8.00
2023-03-06T22:19:03.777Z,8.70
2023-03-06T22:21:33.906Z,9.45
2023-03-06T22:24:02.550Z,9.23
2023-03-06T22:26:31.515Z,8.73
2023-03-06T22:29:00.264Z,9.07
2023-03-06T22:31:29.841Z,9.68
2023-03-06T22:34:00.393Z,9.10
2023-03-06T22:36:31.716Z,9.88
2023-03-06T22:39:04.606Z,10.00
2023-03-06T22:41:33.498Z,8.77
2023-03-06T22:44:03.451Z,9.95
2023-03-06T22:46:32.334Z,10.57
2023-03-06T22:49:02.460Z,9.68
2023-03-06T22:51:31.136Z,9.98
2023-03-06T22:53:59.987Z,10.55
2023-03-06T22:56:30.268Z,9.75
2023-03-06T22:58:59.272Z,10.55
2023-03-06T23:01:29.861Z,9.65
2023-03-06T23:04:00.111Z,9.82
2023-03-06T23:06:30.835Z,9.48
2023-03-06T23:09:01.427Z,9.30
2023-03-06T23:11:31.860Z,9.93
2023-03-06T23:14:20.718Z,9.10
2023-03-06T23:17:07.620Z,9.15
2023-03-06T23:19:54.830Z,9.55
2023-03-06T23:22:42.043Z,8.35
2023-03-06T23:25:29.296Z,8.70
2023-03-06T23:27:59.691Z,9.40
2023-03-06T23:30:28.355Z,10.77
2023-03-06T23:32:57.253Z,10.18
2023-03-06T23:35:25.919Z,9.82
2023-03-06T23:37:54.650Z,10.38
2023-03-06T23:40:23.336Z,9.65
2023-03-06T23:42:51.814Z,10.38
2023-03-06T23:45:22.021Z,10.60
2023-03-06T23:47:50.881Z,10.68
2023-03-06T23:50:19.824Z,9.52
2023-03-06T23:52:48.408Z,11.02
2023-03-06T23:55:17.056Z,10.40
2023-03-06T23:57:45.747Z,11.30
